createdAt,value
2018-10-21T00:01:20.955Z,101147.59
2018-10-21T00:03:48.747Z,101149.16
2018-10-21T00:06:16.520Z,101148.39
2018-10-21T00:08:44.458Z,101147.30
2018-10-21T00:11:12.326Z,101155.45
2018-10-21T00:13:40.092Z,101157.03
2018-10-21T00:16:07.878Z,101173.72
2018-10-21T00:18:35.685Z,101172.22
2018-10-21T00:21:03.558Z,101174.98
2018-10-21T00:23:31.511Z,101168.06
2018-10-21T00:25:59.320Z,101170.01
2018-10-21T00:28:27.351Z,101169.81
2018-10-21T00:30:55.131Z,101180.44
2018-10-21T00:33:22.940Z,101174.64
2018-10-21T00:35:50.779Z,101173.81
2018-10-21T00:38:18.571Z,101162.28
2018-10-21T00:40:46.429Z,101158.98
2018-10-21T00:43:14.228Z,101150.94
2018-10-21T00:45:42.018Z,101144.65
2018-10-21T00:48:09.799Z,101148.38
2018-10-21T00:50:37.583Z,101154.25
2018-10-21T00:53:05.405Z,101154.17
2018-10-21T00:55:33.169Z,101163.00
2018-10-21T00:58:01.592Z,101161.83
2018-10-21T01:00:29.392Z,101157.20
2018-10-21T01:02:57.583Z,101153.07
2018-10-21T01:05:26.419Z,101153.22
2018-10-21T01:07:54.217Z,101156.43
2018-10-21T01:10:22.011Z,101157.55
2018-10-21T01:12:49.783Z,101150.80
2018-10-21T01:15:17.647Z,101147.95
2018-10-21T01:17:45.415Z,101145.88
2018-10-21T01:20:13.230Z,101150.64
2018-10-21T01:22:41.592Z,101152.00
2018-10-21T01:25:09.894Z,101151.13
2018-10-21T01:27:38.731Z,101155.84
2018-10-21T01:30:08.415Z,101149.68
2018-10-21T01:32:36.235Z,101148.95
2018-10-21T01:35:04.895Z,101138.61
2018-10-21T01:37:32.751Z,101135.73
2018-10-21T01:40:47.785Z,101128.30
2018-10-21T01:43:17.748Z,101123.86
2018-10-21T01:45:45.623Z,101124.48
2018-10-21T01:48:14.696Z,101124.96
2018-10-21T01:50:42.790Z,101123.52
2018-10-21T01:53:11.663Z,101123.24
2018-10-21T01:55:39.471Z,101128.36
2018-10-21T01:58:07.516Z,101129.53
2018-10-21T02:00:35.666Z,101126.44
2018-10-21T02:03:03.790Z,101125.61
2018-10-21T02:05:32.038Z,101123.14
2018-10-21T02:07:59.911Z,101123.03
2018-10-21T02:10:28.382Z,101124.83
2018-10-21T02:12:56.514Z,101119.59
2018-10-21T02:15:25.328Z,101105.91
2018-10-21T02:17:53.118Z,101112.79
2018-10-21T02:20:21.691Z,101114.67
2018-10-21T02:22:49.963Z,101114.39
2018-10-21T02:25:17.846Z,101118.08
2018-10-21T02:27:46.423Z,101116.83
2018-10-21T02:30:16.227Z,101110.08
2018-10-21T02:32:44.917Z,101103.16
2018-10-21T02:35:16.376Z,101109.75
2018-10-21T02:37:44.432Z,101108.20
2018-10-21T02:41:33.612Z,101099.39
2018-10-21T02:44:02.087Z,101097.30
2018-10-21T02:46:30.563Z,101089.36
2018-10-21T02:48:59.120Z,101088.55
2018-10-21T02:51:26.941Z,101091.39
2018-10-21T02:53:57.032Z,101093.92
2018-10-21T02:56:24.879Z,101095.81
2018-10-21T02:58:52.752Z,101101.58
2018-10-21T03:01:20.573Z,101099.54
2018-10-21T03:03:52.655Z,101097.13
2018-10-21T03:06:20.507Z,101098.66
2018-10-21T03:08:48.425Z,101106.03
2018-10-21T03:11:16.735Z,101107.05
2018-10-21T03:13:44.640Z,101108.22
2018-10-21T03:16:12.514Z,101098.95
2018-10-21T03:18:40.424Z,101090.34
2018-10-21T03:21:08.320Z,101095.17
2018-10-21T03:23:36.155Z,101090.85
2018-10-21T03:26:04.207Z,101090.91
2018-10-21T03:28:32.591Z,101089.83
2018-10-21T03:31:00.775Z,101086.92
2018-10-21T03:33:28.843Z,101084.98
2018-10-21T03:35:56.760Z,101085.33
2018-10-21T03:38:24.707Z,101094.23
2018-10-21T03:40:52.592Z,101092.78
2018-10-21T03:43:20.439Z,101095.25
2018-10-21T03:45:48.251Z,101099.66
2018-10-21T03:48:16.077Z,101098.16
2018-10-21T03:50:44.007Z,101101.89
2018-10-21T03:53:11.859Z,101108.05
2018-10-21T03:55:40.850Z,101105.92
2018-10-21T03:58:08.835Z,101109.73
2018-10-21T04:00:37.211Z,101109.25
2018-10-21T04:05:38.560Z,101108.54
2018-10-21T04:08:06.487Z,101101.66
2018-10-21T04:10:34.510Z,101096.56
2018-10-21T04:13:02.479Z,101103.16
2018-10-21T04:15:30.411Z,101106.61
2018-10-21T04:17:58.248Z,101099.00
2018-10-21T04:20:26.152Z,101105.16
2018-10-21T04:22:55.180Z,101101.95
2018-10-21T04:25:23.967Z,101106.21
2018-10-21T04:27:52.752Z,101114.98
2018-10-21T04:30:29.507Z,101108.26
2018-10-21T04:34:01.810Z,101109.36
2018-10-21T04:36:30.946Z,101115.79
2018-10-21T04:39:41.567Z,101112.63
2018-10-21T04:42:09.379Z,101114.66
2018-10-21T04:44:40.225Z,101116.09
2018-10-21T04:47:08.313Z,101124.17
2018-10-21T04:49:35.983Z,101119.64
2018-10-21T04:52:03.957Z,101118.67
2018-10-21T04:54:33.871Z,101127.09
2018-10-21T04:57:02.359Z,101132.67
2018-10-21T04:59:30.196Z,101134.80
2018-10-21T05:01:58.042Z,101129.09
2018-10-21T05:04:30.057Z,101132.53
2018-10-21T05:06:57.941Z,101122.56
2018-10-21T05:09:25.851Z,101124.69
2018-10-21T05:11:53.988Z,101127.92
2018-10-21T05:14:22.034Z,101124.48
2018-10-21T05:16:49.856Z,101124.11
2018-10-21T05:19:18.074Z,101127.69
2018-10-21T05:21:45.974Z,101127.00
2018-10-21T05:24:13.924Z,101129.27
2018-10-21T05:26:41.755Z,101130.22
2018-10-21T05:29:09.612Z,101125.83
2018-10-21T05:31:37.444Z,101126.30
2018-10-21T05:34:05.619Z,101122.49
2018-10-21T05:36:33.482Z,101117.27
2018-10-21T05:39:01.327Z,101122.15
2018-10-21T05:41:29.153Z,101123.11
2018-10-21T05:43:57.049Z,101125.24
2018-10-21T05:46:50.341Z,101129.30
2018-10-21T05:49:18.170Z,101126.82
2018-10-21T05:51:47.192Z,101132.39
2018-10-21T05:54:15.956Z,101126.69
2018-10-21T05:56:45.024Z,101124.07
2018-10-21T05:59:13.534Z,101118.23
2018-10-21T06:01:41.872Z,101124.17
2018-10-21T06:04:10.669Z,101118.09
2018-10-21T06:06:38.876Z,101114.55
2018-10-21T06:09:08.831Z,101114.75
2018-10-21T06:11:36.676Z,101113.31
2018-10-21T06:14:05.204Z,101114.48
2018-10-21T06:16:38.699Z,101109.26
2018-10-21T06:19:11.179Z,101102.03
2018-10-21T06:21:40.043Z,101114.97
2018-10-21T06:24:07.972Z,101118.30
2018-10-21T06:26:35.804Z,101116.38
2018-10-21T06:29:03.705Z,101119.33
2018-10-21T06:31:31.580Z,101128.34
2018-10-21T06:33:59.392Z,101116.81
2018-10-21T06:36:27.211Z,101121.56
2018-10-21T06:38:55.300Z,101126.30
2018-10-21T06:41:23.177Z,101128.44
2018-10-21T06:43:51.044Z,101123.42
2018-10-21T06:46:18.905Z,101123.77
2018-10-21T06:48:46.767Z,101124.96
2018-10-21T06:51:14.639Z,101125.65
2018-10-21T06:53:42.502Z,101127.64
2018-10-21T06:56:10.341Z,101128.84
2018-10-21T06:58:38.243Z,101126.44
2018-10-21T07:01:11.759Z,101126.78
2018-10-21T07:03:39.637Z,101124.27
2018-10-21T07:06:11.845Z,101122.34
2018-10-21T07:08:39.787Z,101129.45
2018-10-21T07:11:07.636Z,101130.66
2018-10-21T07:13:35.626Z,101132.16
2018-10-21T07:16:04.162Z,101131.54
2018-10-21T07:18:33.137Z,101138.66
2018-10-21T07:21:01.319Z,101141.47
2018-10-21T07:23:29.377Z,101149.89
2018-10-21T07:25:57.281Z,101150.92
2018-10-21T07:28:25.540Z,101148.06
2018-10-21T07:30:53.587Z,101151.36
2018-10-21T07:33:21.409Z,101155.86
2018-10-21T07:35:49.250Z,101157.72
2018-10-21T07:38:17.124Z,101154.84
2018-10-21T07:40:45.232Z,101154.77
2018-10-21T07:43:13.057Z,101159.61
2018-10-21T07:45:40.863Z,101163.48
2018-10-21T07:48:08.767Z,101164.40
2018-10-21T07:50:36.587Z,101165.28
2018-10-21T07:53:04.753Z,101171.43
2018-10-21T07:55:32.903Z,101173.17
2018-10-21T07:58:00.789Z,101162.16
2018-10-21T08:00:28.756Z,101155.19
2018-10-21T08:02:56.729Z,101154.98
2018-10-21T08:05:42.217Z,101164.43
2018-10-21T08:08:13.538Z,101165.67
2018-10-21T08:10:41.803Z,101158.44
2018-10-21T08:13:11.678Z,101160.51
2018-10-21T08:15:40.175Z,101165.87
2018-10-21T08:18:09.164Z,101163.04
2018-10-21T08:20:37.548Z,101167.58
2018-10-21T08:23:06.538Z,101169.53
2018-10-21T08:25:34.643Z,101170.28
2018-10-21T08:28:02.809Z,101165.42
2018-10-21T08:30:30.851Z,101164.41
2018-10-21T08:32:59.576Z,101159.09
2018-10-21T08:35:27.342Z,101161.78
2018-10-21T08:37:55.200Z,101163.95
2018-10-21T08:40:23.139Z,101161.25
2018-10-21T08:42:54.494Z,101158.21
2018-10-21T08:45:22.710Z,101158.73
2018-10-21T08:47:50.588Z,101159.14
2018-10-21T08:50:18.479Z,101151.67
2018-10-21T08:52:46.294Z,101143.84
2018-10-21T08:55:14.192Z,101144.05
2018-10-21T08:57:42.272Z,101136.85
2018-10-21T09:00:13.347Z,101133.95
2018-10-21T09:02:41.623Z,101135.79
2018-10-21T09:05:11.144Z,101142.74
2018-10-21T09:07:39.493Z,101136.92
2018-10-21T09:10:09.215Z,101140.39
2018-10-21T09:12:37.276Z,101136.84
2018-10-21T09:15:07.504Z,101133.97
2018-10-21T09:17:35.418Z,101129.94
2018-10-21T09:20:03.736Z,101130.17
2018-10-21T09:22:31.981Z,101127.13
2018-10-21T09:24:59.990Z,101128.88
2018-10-21T09:27:27.795Z,101129.62
2018-10-21T09:29:55.752Z,101135.80
2018-10-21T09:32:23.749Z,101130.32
2018-10-21T09:34:51.540Z,101132.39
2018-10-21T09:37:19.464Z,101135.25
2018-10-21T09:39:47.299Z,101120.02
2018-10-21T09:42:15.212Z,101121.59
2018-10-21T09:44:43.055Z,101118.52
2018-10-21T09:47:10.845Z,101112.83
2018-10-21T09:49:38.615Z,101103.80
2018-10-21T09:52:06.583Z,101095.45
2018-10-21T09:54:34.502Z,101088.42
2018-10-21T09:57:02.624Z,101089.27
2018-10-21T09:59:30.440Z,101086.67
2018-10-21T10:02:04.145Z,101091.80
2018-10-21T10:04:32.243Z,101093.00
2018-10-21T10:07:00.446Z,101086.59
2018-10-21T10:09:28.312Z,101086.51
2018-10-21T10:11:56.280Z,101083.22
2018-10-21T10:14:24.248Z,101083.56
2018-10-21T10:16:52.206Z,101084.42
2018-10-21T10:19:20.040Z,101080.47
2018-10-21T10:21:47.960Z,101078.34
2018-10-21T10:24:16.313Z,101082.96
2018-10-21T10:26:44.139Z,101085.08
2018-10-21T10:29:12.088Z,101087.70
2018-10-21T10:31:39.940Z,101083.07
2018-10-21T10:34:07.935Z,101078.10
2018-10-21T10:36:35.931Z,101074.81
2018-10-21T10:39:07.072Z,101069.36
2018-10-21T10:41:34.957Z,101064.03
2018-10-21T10:44:02.876Z,101060.94
2018-10-21T10:46:34.491Z,101050.23
2018-10-21T10:49:02.562Z,101043.92
2018-10-21T10:51:30.371Z,101047.59
2018-10-21T10:53:58.412Z,101038.95
2018-10-21T10:56:26.226Z,101030.88
2018-10-21T10:58:54.025Z,101014.95
2018-10-21T11:01:21.875Z,101013.26
2018-10-21T11:03:49.715Z,101015.64
2018-10-21T11:06:17.675Z,101019.43
2018-10-21T11:08:45.576Z,101010.23
2018-10-21T11:11:13.731Z,101009.17
2018-10-21T11:13:41.633Z,101008.67
2018-10-21T11:16:09.629Z,101006.27
2018-10-21T11:18:37.609Z,101004.52
2018-10-21T11:21:05.612Z,100998.62
2018-10-21T11:23:33.475Z,100988.09
2018-10-21T11:26:01.841Z,100985.38
2018-10-21T11:28:29.696Z,100971.69
2018-10-21T11:30:57.585Z,100971.33
2018-10-21T11:33:25.451Z,100965.55
2018-10-21T11:35:53.323Z,100968.55
2018-10-21T11:38:21.126Z,100964.45
2018-10-21T11:40:49.122Z,100960.83
2018-10-21T11:43:17.049Z,100961.19
2018-10-21T11:45:45.076Z,100954.39
2018-10-21T11:48:16.453Z,100957.92
2018-10-21T11:50:44.272Z,100958.22
2018-10-21T11:53:12.222Z,100949.89
2018-10-21T11:55:41.149Z,100947.43
2018-10-21T11:58:10.941Z,100939.58
2018-10-21T12:00:38.843Z,100935.30
2018-10-21T12:03:07.393Z,100937.69
2018-10-21T12:05:35.335Z,100935.27
2018-10-21T12:08:03.384Z,100928.01
2018-10-21T12:10:31.366Z,100919.02
2018-10-21T12:12:59.257Z,100919.48
2018-10-21T12:15:27.115Z,100919.09
2018-10-21T12:17:55.061Z,100915.70
2018-10-21T12:20:22.989Z,100906.92
2018-10-21T12:22:50.872Z,100904.33
2018-10-21T12:25:18.703Z,100906.05
2018-10-21T12:27:46.477Z,100903.80
2018-10-21T12:30:14.289Z,100898.78
2018-10-21T12:32:42.231Z,100900.14
2018-10-21T12:35:11.490Z,100901.74
2018-10-21T12:37:39.583Z,100898.47
2018-10-21T12:40:08.817Z,100890.75
2018-10-21T12:42:37.106Z,100888.46
2018-10-21T12:45:07.524Z,100885.41
2018-10-21T12:47:35.411Z,100880.65
2018-10-21T12:50:07.083Z,100882.59
2018-10-21T12:52:35.941Z,100882.20
2018-10-21T12:55:05.031Z,100878.34
2018-10-21T12:57:33.088Z,100879.34
2018-10-21T13:00:00.958Z,100868.66
2018-10-21T13:02:28.825Z,100867.86
2018-10-21T13:04:56.855Z,100857.16
2018-10-21T13:07:33.979Z,100863.14
2018-10-21T13:10:01.948Z,100855.44
2018-10-21T13:12:29.852Z,100864.45
2018-10-21T13:14:57.711Z,100862.16
2018-10-21T13:17:25.556Z,100862.23
2018-10-21T13:19:53.451Z,100853.16
2018-10-21T13:22:21.555Z,100852.16
2018-10-21T13:24:49.515Z,100844.41
2018-10-21T13:27:17.364Z,100839.86
2018-10-21T13:29:45.189Z,100839.59
2018-10-21T13:32:13.018Z,100839.59
2018-10-21T13:34:41.057Z,100839.85
2018-10-21T13:37:08.861Z,100842.55
2018-10-21T13:39:36.611Z,100832.56
2018-10-21T13:42:04.572Z,100833.31
2018-10-21T13:44:32.516Z,100835.17
2018-10-21T13:47:00.368Z,100827.06
2018-10-21T13:49:28.273Z,100820.03
2018-10-21T13:51:57.225Z,100824.07
2018-10-21T13:54:24.879Z,100821.38
2018-10-21T13:56:52.737Z,100816.23
2018-10-21T13:59:20.612Z,100814.31
2018-10-21T14:01:51.529Z,100814.82
2018-10-21T14:04:19.536Z,100813.44
2018-10-21T14:06:47.233Z,100820.67
2018-10-21T14:09:16.234Z,100813.09
2018-10-21T14:11:44.051Z,100815.17
2018-10-21T14:14:11.966Z,100803.57
2018-10-21T14:16:40.109Z,100801.72
2018-10-21T14:19:08.472Z,100801.52
2018-10-21T14:21:36.312Z,100799.37
2018-10-21T14:24:04.237Z,100804.80
2018-10-21T14:26:32.211Z,100798.64
2018-10-21T14:29:00.042Z,100791.38
2018-10-21T14:31:28.169Z,100791.10
2018-10-21T14:33:56.077Z,100789.79
2018-10-21T14:36:25.181Z,100790.89
2018-10-21T14:38:53.087Z,100786.08
2018-10-21T14:41:20.924Z,100787.70
2018-10-21T14:43:49.439Z,100784.70
2018-10-21T14:46:17.324Z,100781.20
2018-10-21T14:48:45.292Z,100783.09
2018-10-21T14:51:13.345Z,100777.95
2018-10-21T14:53:41.188Z,100769.03
2018-10-21T14:56:12.321Z,100769.23
2018-10-21T14:58:40.343Z,100771.31
2018-10-21T15:01:08.561Z,100773.39
2018-10-21T15:03:37.114Z,100760.40
2018-10-21T15:06:04.992Z,100771.91
2018-10-21T15:08:33.028Z,100773.44
2018-10-21T15:11:01.456Z,100765.80
2018-10-21T15:13:29.416Z,100764.25
2018-10-21T15:15:57.317Z,100757.01
2018-10-21T15:18:25.346Z,100759.39
2018-10-21T15:20:53.291Z,100761.27
2018-10-21T15:23:21.304Z,100757.22
2018-10-21T15:25:49.007Z,100753.15
2018-10-21T15:28:17.002Z,100759.28
2018-10-21T15:30:44.785Z,100759.98
2018-10-21T15:33:12.761Z,100754.51
2018-10-21T15:35:40.588Z,100753.39
2018-10-21T15:38:08.817Z,100755.48
2018-10-21T15:40:37.336Z,100754.83
2018-10-21T15:43:05.225Z,100744.51
2018-10-21T15:45:33.222Z,100751.31
2018-10-21T15:48:01.488Z,100757.61
2018-10-21T15:50:29.583Z,100754.30
2018-10-21T15:52:57.439Z,100762.72
2018-10-21T15:55:25.797Z,100759.41
2018-10-21T15:57:57.713Z,100757.59
2018-10-21T16:00:25.576Z,100760.73
2018-10-21T16:02:53.744Z,100759.40
2018-10-21T16:05:21.624Z,100761.00
2018-10-21T16:07:49.786Z,100754.16
2018-10-21T16:10:17.753Z,100758.43
2018-10-21T16:12:45.781Z,100758.58
2018-10-21T16:15:14.872Z,100761.48
2018-10-21T16:17:43.848Z,100761.17
2018-10-21T16:20:11.759Z,100761.40
2018-10-21T16:22:40.820Z,100761.47
2018-10-21T16:25:11.059Z,100765.42
2018-10-21T16:27:39.293Z,100766.72
2018-10-21T16:30:10.368Z,100768.11
2018-10-21T16:32:39.230Z,100770.76
2018-10-21T16:35:08.017Z,100767.16
2018-10-21T16:37:36.071Z,100769.41
2018-10-21T16:40:04.652Z,100765.28
2018-10-21T16:42:32.655Z,100763.00
2018-10-21T16:45:00.706Z,100764.22
2018-10-21T16:47:28.596Z,100774.45
2018-10-21T16:49:56.662Z,100770.23
2018-10-21T16:52:24.623Z,100783.70
2018-10-21T16:54:52.649Z,100776.36
2018-10-21T16:57:20.649Z,100779.58
2018-10-21T16:59:51.867Z,100785.75
2018-10-21T17:02:19.701Z,100790.67
2018-10-21T17:04:47.566Z,100796.00
2018-10-21T17:07:15.614Z,100795.38
2018-10-21T17:09:43.826Z,100799.47
2018-10-21T17:12:13.299Z,100794.23
2018-10-21T17:14:41.255Z,100793.10
2018-10-21T17:17:09.239Z,100803.86
2018-10-21T17:19:37.108Z,100799.54
2018-10-21T17:22:05.126Z,100792.36
2018-10-21T17:24:32.988Z,100803.73
2018-10-21T17:27:00.854Z,100800.50
2018-10-21T17:29:28.843Z,100802.28
2018-10-21T17:31:56.693Z,100801.19
2018-10-21T17:34:24.796Z,100798.73
2018-10-21T17:36:52.906Z,100798.98
2018-10-21T17:39:21.156Z,100795.22
2018-10-21T17:41:49.248Z,100804.70
2018-10-21T17:44:28.448Z,100798.80
2018-10-21T17:46:56.524Z,100802.14
2018-10-21T17:49:24.459Z,100799.69
2018-10-21T17:51:52.475Z,100806.48
2018-10-21T17:54:20.452Z,100811.64
2018-10-21T17:56:54.017Z,100813.83
2018-10-21T17:59:22.315Z,100811.85
2018-10-21T18:01:50.429Z,100808.04
2018-10-21T18:04:18.527Z,100818.26
2018-10-21T18:06:46.450Z,100814.62
2018-10-21T18:09:14.612Z,100813.94
2018-10-21T18:11:42.977Z,100816.02
2018-10-21T18:14:10.996Z,100818.97
2018-10-21T18:16:41.140Z,100824.87
2018-10-21T18:19:09.330Z,100821.33
2018-10-21T18:21:37.250Z,100820.09
2018-10-21T18:24:06.129Z,100822.99
2018-10-21T18:26:34.140Z,100820.25
2018-10-21T18:29:02.310Z,100815.83
2018-10-21T18:31:30.459Z,100821.67
2018-10-21T18:34:00.098Z,100820.94
2018-10-21T18:36:28.457Z,100818.05
2018-10-21T18:38:57.171Z,100817.07
2018-10-21T18:41:25.843Z,100813.17
2018-10-21T18:43:54.942Z,100812.87
2018-10-21T18:46:23.052Z,100811.42
2018-10-21T18:48:51.376Z,100820.20
2018-10-21T18:51:19.419Z,100815.80
2018-10-21T18:53:47.372Z,100821.11
2018-10-21T18:56:15.358Z,100818.48
2018-10-21T18:58:43.553Z,100819.84
2018-10-21T19:01:11.779Z,100822.02
2018-10-21T19:03:39.899Z,100822.86
2018-10-21T19:06:08.095Z,100819.59
2018-10-21T19:08:36.122Z,100821.08
2018-10-21T19:11:04.961Z,100816.80
2018-10-21T19:13:33.298Z,100821.28
2018-10-21T19:16:01.242Z,100819.81
2018-10-21T19:18:29.750Z,100813.09
2018-10-21T19:20:58.104Z,100815.85
2018-10-21T19:23:26.206Z,100819.64
2018-10-21T19:25:54.316Z,100820.80
2018-10-21T19:28:22.204Z,100825.41
2018-10-21T19:30:50.258Z,100821.80
2018-10-21T19:33:18.215Z,100819.00
2018-10-21T19:35:46.189Z,100819.98
2018-10-21T19:38:14.190Z,100823.63
2018-10-21T19:40:43.177Z,100819.34
2018-10-21T19:43:11.140Z,100820.48
2018-10-21T19:45:39.759Z,100825.08
2018-10-21T19:48:07.932Z,100827.53
2018-10-21T19:51:03.756Z,100830.98
2018-10-21T19:53:31.704Z,100827.66
2018-10-21T19:56:01.004Z,100831.75
2018-10-21T19:58:40.402Z,100828.12
2018-10-21T20:01:08.280Z,100835.68
2018-10-21T20:03:36.232Z,100836.97
2018-10-21T20:06:04.337Z,100837.30
2018-10-21T20:14:27.616Z,100840.20
2018-10-21T20:16:55.455Z,100841.82
2018-10-21T20:19:24.189Z,100840.64
2018-10-21T20:21:52.077Z,100843.90
2018-10-21T20:24:19.884Z,100849.77
2018-10-21T20:26:47.775Z,100852.86
2018-10-21T20:29:16.061Z,100848.75
2018-10-21T20:31:43.867Z,100842.16
2018-10-21T20:34:11.693Z,100843.31
2018-10-21T20:36:40.036Z,100842.78
2018-10-21T20:39:09.003Z,100840.81
2018-10-21T20:41:37.279Z,100842.91
2018-10-21T20:44:05.580Z,100848.98
2018-10-21T20:46:34.623Z,100851.56
2018-10-21T20:49:02.921Z,100852.38
2018-10-21T20:51:30.872Z,100852.34
2018-10-21T20:53:59.379Z,100852.33
2018-10-21T20:56:27.154Z,100855.58
2018-10-21T20:58:54.980Z,100852.95
2018-10-21T21:01:22.967Z,100849.79
2018-10-21T21:03:50.970Z,100852.89
2018-10-21T21:06:18.903Z,100856.78
2018-10-21T21:08:46.616Z,100856.25
2018-10-21T21:11:14.770Z,100854.11
2018-10-21T21:13:42.542Z,100853.24
2018-10-21T21:16:10.339Z,100859.58
2018-10-21T21:18:38.160Z,100854.30
2018-10-21T21:21:06.027Z,100856.23
2018-10-21T21:23:33.837Z,100861.92
2018-10-21T21:26:01.814Z,100858.92
2018-10-21T21:28:29.731Z,100860.55
2018-10-21T21:30:57.486Z,100860.80
2018-10-21T21:33:26.252Z,100857.31
2018-10-21T21:35:54.039Z,100857.27
2018-10-21T21:38:21.856Z,100855.56
2018-10-21T21:40:49.716Z,100863.38
2018-10-21T21:43:17.521Z,100860.70
2018-10-21T21:45:45.411Z,100857.23
2018-10-21T21:48:13.308Z,100858.00
2018-10-21T21:50:41.898Z,100854.05
2018-10-21T21:53:09.688Z,100854.97
2018-10-21T21:55:37.500Z,100856.55
2018-10-21T21:58:05.906Z,100851.47
2018-10-21T22:00:33.824Z,100846.89
2018-10-21T22:03:01.656Z,100838.94
2018-10-21T22:05:29.461Z,100846.21
2018-10-21T22:07:57.433Z,100843.16
2018-10-21T22:10:25.260Z,100850.27
2018-10-21T22:12:53.076Z,100848.52
2018-10-21T22:15:20.965Z,100848.09
2018-10-21T22:17:48.851Z,100853.23
2018-10-21T22:20:16.654Z,100845.08
2018-10-21T22:22:44.524Z,100846.25
2018-10-21T22:25:12.334Z,100851.21
2018-10-21T22:27:40.168Z,100852.20
2018-10-21T22:30:09.609Z,100850.28
2018-10-21T22:32:37.347Z,100850.95
2018-10-21T22:35:06.294Z,100854.72
2018-10-21T22:37:34.502Z,100845.55
2018-10-21T22:40:02.337Z,100847.34
2018-10-21T22:42:30.739Z,100849.97
2018-10-21T22:44:58.557Z,100854.55
2018-10-21T22:47:26.400Z,100852.41
2018-10-21T22:49:54.269Z,100852.91
2018-10-21T22:52:22.089Z,100857.45
2018-10-21T22:54:50.240Z,100851.88
2018-10-21T22:57:19.380Z,100856.78
2018-10-21T22:59:48.655Z,100854.16
2018-10-21T23:02:16.683Z,100852.68
2018-10-21T23:04:45.236Z,100858.05
2018-10-21T23:07:13.047Z,100860.83
2018-10-21T23:09:40.836Z,100853.61
2018-10-21T23:12:08.830Z,100855.90
2018-10-21T23:14:36.871Z,100854.87
2018-10-21T23:17:04.895Z,100851.42
2018-10-21T23:19:40.860Z,100863.22
2018-10-21T23:22:09.038Z,100856.98
2018-10-21T23:24:37.649Z,100863.33
2018-10-21T23:27:06.031Z,100860.04
2018-10-21T23:29:33.872Z,100855.44
2018-10-21T23:32:01.696Z,100862.94
2018-10-21T23:34:29.551Z,100856.17
2018-10-21T23:36:57.328Z,100862.22
2018-10-21T23:39:26.003Z,100862.98
2018-10-21T23:41:53.813Z,100859.86
2018-10-21T23:44:21.763Z,100859.31
2018-10-21T23:46:50.092Z,100860.23
2018-10-21T23:49:18.235Z,100858.25
2018-10-21T23:51:46.328Z,100852.98
2018-10-21T23:54:14.218Z,100856.38
2018-10-21T23:56:42.180Z,100855.98
2018-10-21T23:59:10.846Z,100852.97
